Time,TemperatureF,DewpointF,PressureIn,WindDirection,WindDirectionDegrees,WindSpeedMPH,WindSpeedGustMPH,Humidity,HourlyPrecipIn,Conditions,Clouds,dailyrainin,SolarRadiationWatts/m^2,SoftwareType,DateUTC
2013-02-18 00:09:00,16.1,4.0,29.84,West,262,4.0,13.0,60,0.00,,,0.00,0,weatherlink.com 1.10,2013-02-18 05:09:00,
2013-02-18 00:25:00,16.0,4.0,29.85,WNW,290,8.0,17.0,60,0.00,,,0.00,0,weatherlink.com 1.10,2013-02-18 05:25:00,
2013-02-18 00:39:00,15.9,5.0,29.86,WNW,292,3.0,14.0,61,0.00,,,0.00,0,weatherlink.com 1.10,2013-02-18 05:39:00,
2013-02-18 00:54:00,16.0,5.0,29.87,NW,310,4.0,14.0,61,0.00,,,0.00,0,weatherlink.com 1.10,2013-02-18 05:54:00,
2013-02-18 01:09:00,16.1,5.0,29.87,West,280,5.0,15.0,61,0.00,,,0.00,0,weatherlink.com 1.10,2013-02-18 06:09:00,
2013-02-18 01:24:00,16.2,5.0,29.88,West,277,3.0,17.0,61,0.00,,,0.00,0,weatherlink.com 1.10,2013-02-18 06:24:00,
2013-02-18 01:39:00,16.1,5.0,29.88,NNW,333,5.0,19.0,61,0.00,,,0.00,0,weatherlink.com 1.10,2013-02-18 06:39:00,
2013-02-18 01:54:00,16.1,5.0,29.89,WNW,290,6.0,21.0,61,0.00,,,0.00,0,weatherlink.com 1.10,2013-02-18 06:54:00,
2013-02-18 02:09:00,16.0,5.0,29.88,WNW,289,12.0,20.0,62,0.00,,,0.00,0,weatherlink.com 1.10,2013-02-18 07:09:00,
2013-02-18 02:24:00,15.9,5.0,29.89,West,259,11.0,14.0,62,0.00,,,0.00,0,weatherlink.com 1.10,2013-02-18 07:24:00,
2013-02-18 02:40:00,15.8,5.0,29.90,WSW,238,7.0,19.0,62,0.00,,,0.00,0,weatherlink.com 1.10,2013-02-18 07:40:00,
2013-02-18 02:55:00,15.7,5.0,29.90,WSW,240,7.0,17.0,62,0.00,,,0.00,0,weatherlink.com 1.10,2013-02-18 07:55:00,
2013-02-18 03:09:00,15.6,5.0,29.91,WNW,298,5.0,13.0,62,0.00,,,0.00,0,weatherlink.com 1.10,2013-02-18 08:09:00,
2013-02-18 03:24:00,15.7,5.0,29.91,NW,315,7.0,20.0,62,0.00,,,0.00,0,weatherlink.com 1.10,2013-02-18 08:24:00,
2013-02-18 03:39:00,15.7,4.0,29.92,West,278,5.0,18.0,61,0.00,,,0.00,0,weatherlink.com 1.10,2013-02-18 08:39:00,
2013-02-18 03:54:00,15.7,4.0,29.93,West,275,9.0,19.0,61,0.00,,,0.00,0,weatherlink.com 1.10,2013-02-18 08:54:00,
2013-02-18 04:09:00,15.5,4.0,29.93,WNW,298,6.0,17.0,61,0.00,,,0.00,0,weatherlink.com 1.10,2013-02-18 09:09:00,
2013-02-18 04:24:00,15.4,4.0,29.94,West,268,7.0,19.0,62,0.00,,,0.00,0,weatherlink.com 1.10,2013-02-18 09:24:00,
2013-02-18 04:39:00,15.3,4.0,29.95,WNW,302,13.0,16.0,62,0.00,,,0.00,0,weatherlink.com 1.10,2013-02-18 09:39:00,
2013-02-18 04:55:00,15.3,4.0,29.97,NW,317,5.0,16.0,62,0.00,,,0.00,0,weatherlink.com 1.10,2013-02-18 09:55:00,
2013-02-18 05:10:00,15.3,4.0,29.98,WNW,286,14.0,16.0,62,0.00,,,0.00,0,weatherlink.com 1.10,2013-02-18 10:10:00,
2013-02-18 05:25:00,15.3,4.0,29.99,WNW,298,8.0,21.0,62,0.00,,,0.00,0,weatherlink.com 1.10,2013-02-18 10:25:00,
2013-02-18 05:40:00,15.3,4.0,30.00,WNW,293,6.0,14.0,62,0.00,,,0.00,0,weatherlink.com 1.10,2013-02-18 10:40:00,
2013-02-18 05:55:00,15.2,4.0,30.01,West,280,5.0,16.0,62,0.00,,,0.00,0,weatherlink.com 1.10,2013-02-18 10:55:00,
2013-02-18 06:10:00,15.0,4.0,30.01,NNW,345,4.0,14.0,62,0.00,,,0.00,0,weatherlink.com 1.10,2013-02-18 11:10:00,
2013-02-18 06:25:00,14.9,4.0,30.02,West,279,6.0,12.0,62,0.00,,,0.00,0,weatherlink.com 1.10,2013-02-18 11:25:00,
2013-02-18 06:40:00,14.7,4.0,30.03,West,281,6.0,11.0,62,0.00,,,0.00,0,weatherlink.com 1.10,2013-02-18 11:40:00,
2013-02-18 06:55:00,14.8,4.0,30.04,West,271,4.0,11.0,62,0.00,,,0.00,7,weatherlink.com 1.10,2013-02-18 11:55:00,
2013-02-18 07:10:00,14.8,3.0,30.06,NW,305,0.0,16.0,61,0.00,,,0.00,11,weatherlink.com 1.10,2013-02-18 12:10:00,
2013-02-18 07:40:00,15.0,4.0,30.07,NNW,329,3.0,19.0,61,0.00,,,0.00,19,weatherlink.com 1.10,2013-02-18 12:40:00,
2013-02-18 07:55:00,15.6,4.0,30.08,West,279,8.0,19.0,60,0.00,,,0.00,56,weatherlink.com 1.10,2013-02-18 12:55:00,
2013-02-18 08:10:00,16.3,4.0,30.09,WNW,286,7.0,14.0,59,0.00,,,0.00,42,weatherlink.com 1.10,2013-02-18 13:10:00,
2013-02-18 08:26:00,17.3,5.0,30.09,WNW,298,4.0,15.0,59,0.00,,,0.00,214,weatherlink.com 1.10,2013-02-18 13:26:00,
2013-02-18 08:40:00,19.8,7.0,30.10,NW,305,9.0,11.0,57,0.00,,,0.00,369,weatherlink.com 1.10,2013-02-18 13:40:00,
2013-02-18 08:55:00,22.0,7.0,30.10,SSW,210,9.0,15.0,53,0.00,,,0.00,425,weatherlink.com 1.10,2013-02-18 13:55:00,
2013-02-18 09:10:00,23.2,7.0,30.09,WNW,301,2.0,13.0,50,0.00,,,0.00,478,weatherlink.com 1.10,2013-02-18 14:10:00,
2013-02-18 09:26:00,24.9,7.0,30.10,West,274,3.0,16.0,47,0.00,,,0.00,529,weatherlink.com 1.10,2013-02-18 14:26:00,
2013-02-18 09:40:00,26.2,7.0,30.11,West,272,6.0,11.0,45,0.00,,,0.00,580,weatherlink.com 1.10,2013-02-18 14:40:00,
2013-02-18 09:56:00,27.3,6.0,30.11,West,271,11.0,13.0,40,0.00,,,0.00,628,weatherlink.com 1.10,2013-02-18 14:56:00,
2013-02-18 10:11:00,27.2,6.0,30.12,West,280,5.0,14.0,41,0.00,,,0.00,670,weatherlink.com 1.10,2013-02-18 15:11:00,
2013-02-18 10:26:00,28.6,9.0,30.12,WNW,294,5.0,15.0,43,0.00,,,0.00,707,weatherlink.com 1.10,2013-02-18 15:26:00,
2013-02-18 10:41:00,30.9,7.0,30.13,WNW,293,6.0,12.0,37,0.00,,,0.00,742,weatherlink.com 1.10,2013-02-18 15:41:00,
2013-02-18 10:56:00,30.5,7.0,30.14,SSW,213,6.0,11.0,37,0.00,,,0.00,766,weatherlink.com 1.10,2013-02-18 15:56:00,
2013-02-18 11:11:00,31.3,6.0,30.15,West,279,5.0,14.0,35,0.00,,,0.00,789,weatherlink.com 1.10,2013-02-18 16:11:00,
2013-02-18 11:26:00,30.5,6.0,30.15,SW,220,9.0,16.0,35,0.00,,,0.00,805,weatherlink.com 1.10,2013-02-18 16:26:00,
2013-02-18 11:41:00,30.2,5.0,30.15,West,271,4.0,13.0,35,0.00,,,0.00,817,weatherlink.com 1.10,2013-02-18 16:41:00,
2013-02-18 11:56:00,30.3,5.0,30.16,West,277,12.0,19.0,34,0.00,,,0.00,824,weatherlink.com 1.10,2013-02-18 16:56:00,
2013-02-18 12:11:00,29.5,4.0,30.15,WNW,288,10.0,19.0,33,0.00,,,0.00,640,weatherlink.com 1.10,2013-02-18 17:11:00,
2013-02-18 12:26:00,31.2,6.0,30.15,West,276,4.0,18.0,34,0.00,,,0.00,830,weatherlink.com 1.10,2013-02-18 17:26:00,
2013-02-18 12:41:00,32.6,6.0,30.15,NNW,331,2.0,15.0,33,0.00,,,0.00,824,weatherlink.com 1.10,2013-02-18 17:41:00,
2013-02-18 12:56:00,34.3,6.0,30.15,West,267,5.0,12.0,31,0.00,,,0.00,814,weatherlink.com 1.10,2013-02-18 17:56:00,
2013-02-18 13:11:00,34.7,9.0,30.14,WNW,301,12.0,12.0,34,0.00,,,0.00,796,weatherlink.com 1.10,2013-02-18 18:11:00,
2013-02-18 13:26:00,34.5,8.0,30.14,SSE,165,12.0,13.0,33,0.00,,,0.00,775,weatherlink.com 1.10,2013-02-18 18:26:00,
2013-02-18 13:41:00,34.1,6.0,30.14,West,261,6.0,16.0,31,0.00,,,0.00,745,weatherlink.com 1.10,2013-02-18 18:41:00,
2013-02-18 13:56:00,36.6,8.0,30.14,WNW,291,9.0,12.0,30,0.00,,,0.00,719,weatherlink.com 1.10,2013-02-18 18:56:00,
2013-02-18 14:11:00,36.8,7.0,30.14,West,279,7.0,16.0,29,0.00,,,0.00,680,weatherlink.com 1.10,2013-02-18 19:11:00,
2013-02-18 14:26:00,37.2,8.0,30.14,WNW,290,4.0,13.0,29,0.00,,,0.00,643,weatherlink.com 1.10,2013-02-18 19:26:00,
2013-02-18 14:41:00,38.2,8.0,30.14,SSW,195,7.0,12.0,28,0.00,,,0.00,598,weatherlink.com 1.10,2013-02-18 19:41:00,
2013-02-18 14:56:00,36.8,6.0,30.14,WNW,300,8.0,13.0,28,0.00,,,0.00,547,weatherlink.com 1.10,2013-02-18 19:56:00,
2013-02-18 15:12:00,36.0,7.0,30.14,West,259,6.0,15.0,30,0.00,,,0.00,499,weatherlink.com 1.10,2013-02-18 20:12:00,
2013-02-18 15:27:00,36.4,7.0,30.14,WSW,248,4.0,21.0,29,0.00,,,0.00,439,weatherlink.com 1.10,2013-02-18 20:27:00,
2013-02-18 15:42:00,37.1,6.0,30.14,West,265,3.0,14.0,27,0.00,,,0.00,383,weatherlink.com 1.10,2013-02-18 20:42:00,
2013-02-18 15:56:00,35.5,5.0,30.14,WNW,284,5.0,18.0,28,0.00,,,0.00,323,weatherlink.com 1.10,2013-02-18 20:56:00,
2013-02-18 16:12:00,36.1,7.0,30.15,WNW,294,4.0,8.0,29,0.00,,,0.00,253,weatherlink.com 1.10,2013-02-18 21:12:00,
2013-02-18 16:26:00,34.3,5.0,30.16,West,265,5.0,13.0,29,0.00,,,0.00,72,weatherlink.com 1.10,2013-02-18 21:26:00,
2013-02-18 16:41:00,32.3,5.0,30.16,West,271,3.0,10.0,32,0.00,,,0.00,18,weatherlink.com 1.10,2013-02-18 21:41:00,
2013-02-18 16:56:00,31.1,6.0,30.17,WNW,291,8.0,12.0,34,0.00,,,0.00,12,weatherlink.com 1.10,2013-02-18 21:56:00,
2013-02-18 17:11:00,30.6,6.0,30.17,WSW,250,4.0,9.0,35,0.00,,,0.00,9,weatherlink.com 1.10,2013-02-18 22:11:00,
2013-02-18 17:26:00,30.2,5.0,30.18,WNW,298,3.0,7.0,35,0.00,,,0.00,0,weatherlink.com 1.10,2013-02-18 22:26:00,
2013-02-18 17:42:00,29.8,6.0,30.18,West,277,2.0,6.0,36,0.00,,,0.00,0,weatherlink.com 1.10,2013-02-18 22:42:00,
2013-02-18 17:57:00,29.4,5.0,30.19,West,277,4.0,6.0,36,0.00,,,0.00,0,weatherlink.com 1.10,2013-02-18 22:57:00,
2013-02-18 18:12:00,29.1,6.0,30.20,WNW,282,1.0,4.0,38,0.00,,,0.00,0,weatherlink.com 1.10,2013-02-18 23:12:00,
2013-02-18 18:27:00,28.5,5.0,30.20,SW,228,1.0,6.0,37,0.00,,,0.00,0,weatherlink.com 1.10,2013-02-18 23:27:00,
2013-02-18 18:42:00,28.1,5.0,30.20,WSW,246,0.0,3.0,38,0.00,,,0.00,0,weatherlink.com 1.10,2013-02-18 23:42:00,
2013-02-18 18:57:00,27.4,7.0,30.21,SSW,208,1.0,2.0,42,0.00,,,0.00,0,weatherlink.com 1.10,2013-02-18 23:57:00,
2013-02-18 19:12:00,26.9,6.0,30.21,SSW,211,2.0,2.0,41,0.00,,,0.00,0,weatherlink.com 1.10,2013-02-19 00:12:00,
2013-02-18 19:27:00,26.7,6.0,30.22,SW,232,2.0,3.0,41,0.00,,,0.00,0,weatherlink.com 1.10,2013-02-19 00:27:00,
2013-02-18 19:42:00,26.3,7.0,30.22,SW,217,0.0,3.0,44,0.00,,,0.00,0,weatherlink.com 1.10,2013-02-19 00:42:00,
2013-02-18 19:57:00,25.4,9.0,30.22,SW,217,0.0,0.0,49,0.00,,,0.00,0,weatherlink.com 1.10,2013-02-19 00:57:00,
2013-02-18 20:12:00,24.8,8.0,30.22,SW,217,0.0,3.0,48,0.00,,,0.00,0,weatherlink.com 1.10,2013-02-19 01:12:00,
2013-02-18 20:27:00,24.5,7.0,30.22,SW,217,0.0,0.0,47,0.00,,,0.00,0,weatherlink.com 1.10,2013-02-19 01:27:00,
2013-02-18 20:42:00,24.0,9.0,30.23,SW,217,0.0,1.0,52,0.00,,,0.00,0,weatherlink.com 1.10,2013-02-19 01:42:00,
2013-02-18 20:57:00,23.6,9.0,30.23,SW,217,0.0,1.0,53,0.00,,,0.00,0,weatherlink.com 1.10,2013-02-19 01:57:00,
2013-02-18 21:12:00,23.2,9.0,30.22,SW,217,0.0,0.0,56,0.00,,,0.00,0,weatherlink.com 1.10,2013-02-19 02:12:00,
2013-02-18 21:27:00,22.4,11.0,30.23,SW,217,0.0,1.0,61,0.00,,,0.00,0,weatherlink.com 1.10,2013-02-19 02:27:00,
2013-02-18 21:42:00,22.0,9.0,30.24,SW,217,0.0,1.0,58,0.00,,,0.00,0,weatherlink.com 1.10,2013-02-19 02:42:00,
2013-02-18 21:57:00,21.6,10.0,30.24,SW,217,0.0,0.0,60,0.00,,,0.00,0,weatherlink.com 1.10,2013-02-19 02:57:00,
2013-02-18 22:12:00,21.8,9.0,30.24,SW,217,0.0,2.0,58,0.00,,,0.00,0,weatherlink.com 1.10,2013-02-19 03:12:00,
2013-02-18 22:27:00,22.2,10.0,30.24,SW,232,0.0,2.0,59,0.00,,,0.00,0,weatherlink.com 1.10,2013-02-19 03:27:00,
2013-02-18 22:42:00,23.3,10.0,30.24,SW,229,2.0,5.0,58,0.00,,,0.00,0,weatherlink.com 1.10,2013-02-19 03:42:00,
2013-02-18 23:12:00,22.8,11.0,30.23,SW,218,1.0,2.0,60,0.00,,,0.00,0,weatherlink.com 1.10,2013-02-19 04:12:00,
2013-02-18 23:27:00,23.3,11.0,30.24,SSW,195,1.0,4.0,59,0.00,,,0.00,0,weatherlink.com 1.10,2013-02-19 04:27:00,
2013-02-18 23:42:00,24.3,11.0,30.24,WSW,243,0.0,2.0,56,0.00,,,0.00,0,weatherlink.com 1.10,2013-02-19 04:42:00,
2013-02-18 23:58:00,25.2,11.0,30.25,WSW,247,1.0,6.0,55,0.00,,,0.00,0,weatherlink.com 1.10,2013-02-19 04:58:00,